createdAt,value
2019-05-11T00:01:45.248Z,101204.41
2019-05-11T00:06:46.752Z,101189.08
2019-05-11T00:11:48.401Z,101193.11
2019-05-11T00:16:49.916Z,101192.79
2019-05-11T00:21:51.352Z,101196.10
2019-05-11T00:26:52.843Z,101198.34
2019-05-11T00:31:54.457Z,101202.70
2019-05-11T00:36:55.872Z,101202.47
2019-05-11T00:41:57.277Z,101204.88
2019-05-11T00:46:58.678Z,101202.59
2019-05-11T00:52:00.146Z,101205.05
2019-05-11T00:57:01.665Z,101203.52
2019-05-11T01:02:03.039Z,101204.99
2019-05-11T01:07:04.400Z,101202.28
2019-05-11T01:12:05.886Z,101196.41
2019-05-11T01:17:07.393Z,101187.73
2019-05-11T01:22:08.915Z,101194.49
2019-05-11T01:27:10.392Z,101186.92
2019-05-11T01:32:11.906Z,101186.81
2019-05-11T01:37:13.320Z,101178.00
2019-05-11T01:42:14.888Z,101176.30
2019-05-11T01:47:16.390Z,101176.36
2019-05-11T01:52:17.904Z,101182.89
2019-05-11T01:57:19.410Z,101178.97
2019-05-11T02:02:20.893Z,101181.57
2019-05-11T02:07:22.438Z,101177.41
2019-05-11T02:12:24.056Z,101183.95
2019-05-11T02:17:25.557Z,101179.75
2019-05-11T02:22:27.066Z,101185.91
2019-05-11T02:27:28.559Z,101188.91
2019-05-11T02:32:29.941Z,101188.81
2019-05-11T02:37:31.492Z,101191.72
2019-05-11T02:42:32.992Z,101186.44
2019-05-11T02:47:34.475Z,101188.53
2019-05-11T02:52:36.067Z,101193.54
2019-05-11T02:57:37.590Z,101198.25
2019-05-11T03:02:39.117Z,101200.78
2019-05-11T03:07:40.588Z,101206.73
2019-05-11T03:12:42.098Z,101211.47
2019-05-11T03:17:43.634Z,101219.25
2019-05-11T03:22:45.155Z,101216.27
2019-05-11T03:27:46.663Z,101220.92
2019-05-11T03:32:48.179Z,101223.87
2019-05-11T03:37:49.709Z,101231.81
2019-05-11T03:42:51.130Z,101230.84
2019-05-11T03:47:52.579Z,101227.86
2019-05-11T03:52:53.981Z,101234.58
2019-05-11T03:57:55.473Z,101237.70
2019-05-11T04:02:56.904Z,101244.23
2019-05-11T04:07:58.394Z,101238.34
2019-05-11T04:12:59.916Z,101246.48
2019-05-11T04:18:01.348Z,101254.25
2019-05-11T04:23:02.637Z,101262.51
2019-05-11T04:28:04.146Z,101255.41
2019-05-11T04:33:05.683Z,101258.69
2019-05-11T04:38:07.295Z,101256.19
2019-05-11T04:43:08.822Z,101259.78
2019-05-11T04:48:10.362Z,101269.90
2019-05-11T04:53:11.754Z,101276.22
2019-05-11T04:58:13.251Z,101281.42
2019-05-11T05:03:14.730Z,101282.41
2019-05-11T05:08:16.202Z,101279.56
2019-05-11T05:13:17.718Z,101286.67
2019-05-11T05:18:19.121Z,101287.77
2019-05-11T05:23:20.488Z,101294.24
2019-05-11T05:28:21.924Z,101296.16
2019-05-11T05:33:23.461Z,101297.64
2019-05-11T05:38:24.953Z,101302.41
2019-05-11T05:43:28.560Z,101303.77
2019-05-11T05:48:30.022Z,101307.13
2019-05-11T05:53:31.528Z,101322.05
2019-05-11T05:58:33.187Z,101316.74
2019-05-11T06:03:34.583Z,101321.87
2019-05-11T06:08:36.081Z,101334.36
2019-05-11T06:13:45.415Z,101349.49
2019-05-11T06:18:41.189Z,101361.51
2019-05-11T06:23:42.746Z,101373.67
2019-05-11T06:28:44.458Z,101378.39
2019-05-11T06:33:45.963Z,101380.08
2019-05-11T06:38:47.495Z,101379.24
2019-05-11T06:44:01.146Z,101379.89
2019-05-11T06:48:52.419Z,101390.61
2019-05-11T06:53:54.008Z,101390.31
2019-05-11T06:58:55.634Z,101396.92
2019-05-11T07:03:57.228Z,101400.45
2019-05-11T07:08:59.566Z,101408.83
2019-05-11T07:14:18.659Z,101415.69
2019-05-11T07:19:04.467Z,101418.14
2019-05-11T07:24:05.809Z,101423.05
2019-05-11T07:29:07.397Z,101431.34
2019-05-11T07:34:08.954Z,101445.38
2019-05-11T07:39:10.444Z,101449.59
2019-05-11T07:44:12.014Z,101449.45
2019-05-11T07:49:13.538Z,101456.33
2019-05-11T07:54:15.030Z,101459.20
2019-05-11T07:59:18.340Z,101450.95
2019-05-11T08:04:20.246Z,101460.55
2019-05-11T08:09:22.351Z,101468.88
2019-05-11T08:14:23.939Z,101474.65
2019-05-11T08:19:28.091Z,101472.20
2019-05-11T08:24:28.877Z,101492.69
2019-05-11T08:29:30.381Z,101501.87
2019-05-11T08:34:32.029Z,101506.77
2019-05-11T08:39:33.328Z,101510.81
2019-05-11T08:44:34.884Z,101520.03
2019-05-11T08:49:38.100Z,101522.20
2019-05-11T08:54:39.926Z,101522.25
2019-05-11T08:59:41.504Z,101538.61
2019-05-11T09:04:43.076Z,101541.36
2019-05-11T09:09:44.597Z,101555.28
2019-05-11T09:14:47.878Z,101556.94
2019-05-11T09:19:49.603Z,101566.22
2019-05-11T09:24:50.995Z,101557.92
2019-05-11T09:29:52.547Z,101568.73
2019-05-11T09:34:54.068Z,101566.59
2019-05-11T09:39:55.572Z,101578.04
2019-05-11T09:44:57.787Z,101584.48
2019-05-11T09:49:59.490Z,101584.22
2019-05-11T09:55:01.010Z,101572.30
2019-05-11T10:00:02.795Z,101593.61
2019-05-11T10:05:04.563Z,101601.57
2019-05-11T10:10:06.104Z,101605.61
2019-05-11T10:15:08.354Z,101617.77
2019-05-11T10:20:10.174Z,101621.89
2019-05-11T10:25:11.675Z,101632.23
2019-05-11T10:30:13.221Z,101623.56
2019-05-11T10:35:14.751Z,101630.72
2019-05-11T10:40:18.984Z,101646.64
2019-05-11T10:45:20.094Z,101651.83
2019-05-11T10:50:21.574Z,101651.70
2019-05-11T10:55:22.807Z,101654.74
2019-05-11T11:00:24.392Z,101668.83
2019-05-11T11:05:27.950Z,101674.75
2019-05-11T11:10:29.327Z,101680.19
2019-05-11T11:15:30.961Z,101688.13
2019-05-11T11:20:32.521Z,101686.66
2019-05-11T11:25:34.041Z,101698.98
2019-05-11T11:30:37.722Z,101701.17
2019-05-11T11:35:38.821Z,101702.66
2019-05-11T11:40:42.840Z,101707.86
2019-05-11T11:45:43.875Z,101718.45
2019-05-11T11:50:45.442Z,101712.91
2019-05-11T11:55:48.178Z,101723.24
2019-05-11T12:00:49.951Z,101749.73
2019-05-11T12:05:51.490Z,101749.70
2019-05-11T12:10:52.963Z,101756.15
2019-05-11T12:15:54.511Z,101766.72
2019-05-11T12:20:55.946Z,101771.45
2019-05-11T12:25:58.064Z,101773.45
2019-05-11T12:30:59.637Z,101789.56
2019-05-11T12:36:01.175Z,101802.30
2019-05-11T12:41:02.737Z,101821.99
2019-05-11T12:46:04.363Z,101819.34
2019-05-11T12:51:08.058Z,101834.47
2019-05-11T12:56:09.483Z,101840.41
2019-05-11T13:01:11.110Z,101843.64
2019-05-11T13:06:14.734Z,101854.47
2019-05-11T13:11:18.425Z,101860.66
2019-05-11T13:16:19.574Z,101874.56
2019-05-11T13:21:20.996Z,101878.53
2019-05-11T13:26:22.545Z,101873.66
2019-05-11T13:31:24.157Z,101885.26
2019-05-11T13:36:28.515Z,101904.81
2019-05-11T13:41:29.674Z,101911.14
2019-05-11T13:46:32.246Z,101925.69
2019-05-11T13:51:33.747Z,101927.76
2019-05-11T13:56:35.306Z,101939.81
2019-05-11T14:01:38.095Z,101956.27
2019-05-11T14:06:39.914Z,101950.60
2019-05-11T14:11:44.788Z,101965.41
2019-05-11T14:16:44.904Z,101973.66
2019-05-11T14:21:48.800Z,101979.87
2019-05-11T14:26:49.878Z,101977.64
2019-05-11T14:31:51.408Z,101998.75
2019-05-11T14:36:52.882Z,102004.44
2019-05-11T14:41:54.343Z,102008.05
2019-05-11T14:46:55.907Z,102022.11
2019-05-11T14:51:57.835Z,102032.02
2019-05-11T14:56:59.428Z,102041.93
2019-05-11T15:02:00.983Z,102063.02
2019-05-11T15:07:02.518Z,102063.91
2019-05-11T15:12:03.977Z,102085.31
2019-05-11T15:17:05.489Z,102087.86
2019-05-11T15:22:08.638Z,102105.35
2019-05-11T15:27:10.256Z,102112.72
2019-05-11T15:32:11.930Z,102117.55
2019-05-11T15:37:13.449Z,102126.22
2019-05-11T15:42:17.549Z,102134.08
2019-05-11T15:47:18.402Z,102144.88
2019-05-11T15:52:19.893Z,102151.23
2019-05-11T15:57:21.504Z,102153.95
2019-05-11T16:02:23.011Z,102166.22
2019-05-11T16:07:24.481Z,102172.98
2019-05-11T16:12:25.865Z,102186.48
2019-05-11T16:17:27.405Z,102201.98
2019-05-11T16:22:28.939Z,102214.89
2019-05-11T16:27:30.402Z,102226.98
2019-05-11T16:32:31.890Z,102232.89
2019-05-11T16:37:33.415Z,102255.03
2019-05-11T16:42:34.902Z,102248.48
2019-05-11T16:47:38.921Z,102253.51
2019-05-11T16:52:40.291Z,102273.45
2019-05-11T16:57:41.803Z,102279.72
2019-05-11T17:02:43.373Z,102278.23
2019-05-11T17:07:44.795Z,102289.82
2019-05-11T17:12:48.449Z,102302.08
2019-05-11T17:17:49.835Z,102314.42
2019-05-11T17:22:53.733Z,102324.95
2019-05-11T17:27:54.830Z,102322.19
2019-05-11T17:32:56.311Z,102342.03
2019-05-11T17:37:57.841Z,102357.12
2019-05-11T17:42:59.369Z,102355.57
2019-05-11T17:48:00.922Z,102364.31
2019-05-11T17:53:02.465Z,102374.75
2019-05-11T17:58:04.045Z,102380.71
2019-05-11T18:03:08.321Z,102389.13
2019-05-11T18:08:08.914Z,102413.37
2019-05-11T18:13:10.461Z,102412.21
2019-05-11T18:18:12.082Z,102413.94
2019-05-11T18:23:13.677Z,102422.20
2019-05-11T18:28:15.216Z,102443.26
2019-05-11T18:33:18.823Z,102454.53
2019-05-11T18:38:20.251Z,102462.39
2019-05-11T18:43:21.801Z,102462.31
2019-05-11T18:48:23.377Z,102483.02
2019-05-11T18:53:24.902Z,102495.45
2019-05-11T18:58:27.669Z,102496.70
2019-05-11T19:03:29.487Z,102513.05
2019-05-11T19:08:31.948Z,102512.34
2019-05-11T19:13:33.377Z,102522.36
2019-05-11T19:18:34.921Z,102532.03
2019-05-11T19:23:38.027Z,102547.42
2019-05-11T19:28:39.705Z,102556.50
2019-05-11T19:33:41.273Z,102569.59
2019-05-11T19:38:42.773Z,102588.98
2019-05-11T19:43:44.372Z,102591.11
2019-05-11T19:48:47.504Z,102613.61
2019-05-11T19:53:49.137Z,102612.38
2019-05-11T19:58:51.703Z,102620.63
2019-05-11T20:03:53.127Z,102625.76
2019-05-11T20:08:54.660Z,102643.17
2019-05-11T20:13:56.142Z,102644.92
2019-05-11T20:18:59.576Z,102653.22
2019-05-11T20:24:01.119Z,102664.95
2019-05-11T20:29:02.837Z,102672.38
2019-05-11T20:34:04.386Z,102676.32
2019-05-11T20:39:05.887Z,102690.78
2019-05-11T20:44:08.731Z,102689.04
2019-05-11T20:49:10.363Z,102698.83
2019-05-11T20:54:11.949Z,102714.63
2019-05-11T20:59:13.428Z,102723.37
2019-05-11T21:04:16.180Z,102724.06
2019-05-11T21:09:18.412Z,102736.44
2019-05-11T21:14:20.271Z,102740.66
2019-05-11T21:19:21.905Z,102761.60
2019-05-11T21:24:23.471Z,102769.95
2019-05-11T21:29:25.070Z,102768.06
2019-05-11T21:34:27.950Z,102783.81
2019-05-11T21:39:29.625Z,102797.20
2019-05-11T21:44:31.197Z,102792.79
2019-05-11T21:49:32.738Z,102806.98
2019-05-11T21:54:34.288Z,102811.38
2019-05-11T21:59:37.847Z,102834.56
2019-05-11T22:04:39.247Z,102833.05
2019-05-11T22:09:40.775Z,102844.28
2019-05-11T22:14:42.287Z,102841.25
2019-05-11T22:19:43.788Z,102855.74
2019-05-11T22:24:47.617Z,102856.53
2019-05-11T22:29:48.809Z,102859.50
2019-05-11T22:34:50.360Z,102865.80
2019-05-11T22:39:51.880Z,102870.39
2019-05-11T22:44:53.474Z,102879.44
2019-05-11T22:49:54.756Z,102883.78
2019-05-11T22:54:56.185Z,102887.31
2019-05-11T22:59:58.722Z,102890.48
2019-05-11T23:05:01.412Z,102897.95
2019-05-11T23:10:02.900Z,102907.94
2019-05-11T23:15:04.437Z,102904.00
2019-05-11T23:20:06.149Z,102919.22
2019-05-11T23:25:08.128Z,102925.34
2019-05-11T23:30:09.807Z,102928.25
2019-05-11T23:35:11.359Z,102935.18
2019-05-11T23:40:12.836Z,102942.77
2019-05-11T23:45:14.273Z,102949.57
2019-05-11T23:50:18.947Z,102954.77
2019-05-11T23:55:20.047Z,102962.23
